sensor_id;sensor_type;location;lat;lon;timestamp;pressure;altitude;pressure_sealevel;temperature;humidity
21359;BME280;13506;50.852;20.632;2024-01-15T00:01:31;96324.34;;;2.32;94.88
21359;BME280;13506;50.852;20.632;2024-01-15T00:04:00;96320.38;;;2.26;94.55
21359;BME280;13506;50.852;20.632;2024-01-15T00:06:28;96323.88;;;2.25;94.08
21359;BME280;13506;50.852;20.632;2024-01-15T00:08:56;96322.94;;;2.26;94.98
21359;BME280;13506;50.852;20.632;2024-01-15T00:11:28;96311.94;;;2.24;94.48
21359;BME280;13506;50.852;20.632;2024-01-15T00:13:56;96298.56;;;2.19;94.73
21359;BME280;13506;50.852;20.632;2024-01-15T00:16:24;96307.00;;;2.21;94.34
21359;BME280;13506;50.852;20.632;2024-01-15T00:18:52;96300.03;;;2.23;93.86
21359;BME280;13506;50.852;20.632;2024-01-15T00:21:20;96298.28;;;2.23;93.71
21359;BME280;13506;50.852;20.632;2024-01-15T00:23:48;96294.56;;;2.29;94.29
21359;BME280;13506;50.852;20.632;2024-01-15T00:26:16;96272.84;;;2.35;94.10
21359;BME280;13506;50.852;20.632;2024-01-15T00:28:47;96272.75;;;2.36;93.90
21359;BME280;13506;50.852;20.632;2024-01-15T00:31:16;96270.28;;;2.35;93.53
21359;BME280;13506;50.852;20.632;2024-01-15T00:33:44;96279.34;;;2.40;93.58
21359;BME280;13506;50.852;20.632;2024-01-15T00:36:12;96277.44;;;2.44;93.01
21359;BME280;13506;50.852;20.632;2024-01-15T00:38:41;96278.44;;;2.41;92.38
21359;BME280;13506;50.852;20.632;2024-01-15T00:41:09;96279.34;;;2.40;92.26
21359;BME280;13506;50.852;20.632;2024-01-15T00:43:37;96266.53;;;2.40;92.12
21359;BME280;13506;50.852;20.632;2024-01-15T00:46:06;96258.28;;;2.35;91.85
21359;BME280;13506;50.852;20.632;2024-01-15T00:48:34;96248.13;;;2.34;91.83
21359;BME280;13506;50.852;20.632;2024-01-15T00:51:03;96248.13;;;2.34;92.06
21359;BME280;13506;50.852;20.632;2024-01-15T00:53:31;96266.16;;;2.32;91.98
21359;BME280;13506;50.852;20.632;2024-01-15T00:55:59;96247.47;;;2.30;91.93
21359;BME280;13506;50.852;20.632;2024-01-15T00:58:27;96254.34;;;2.30;91.90
21359;BME280;13506;50.852;20.632;2024-01-15T01:00:55;96240.78;;;2.28;91.81
21359;BME280;13506;50.852;20.632;2024-01-15T01:03:26;96225.38;;;2.28;91.87
21359;BME280;13506;50.852;20.632;2024-01-15T01:05:54;96222.75;;;2.29;92.71
21359;BME280;13506;50.852;20.632;2024-01-15T01:08:22;96226.78;;;2.33;91.92
21359;BME280;13506;50.852;20.632;2024-01-15T01:10:50;96227.88;;;2.29;91.79
21359;BME280;13506;50.852;20.632;2024-01-15T01:13:18;96228.59;;;2.31;92.62
21359;BME280;13506;50.852;20.632;2024-01-15T01:15:46;96221.00;;;2.30;91.98
21359;BME280;13506;50.852;20.632;2024-01-15T01:18:13;96227.75;;;2.31;92.06
21359;BME280;13506;50.852;20.632;2024-01-15T01:20:43;96210.81;;;2.28;92.37
21359;BME280;13506;50.852;20.632;2024-01-15T01:23:11;96201.28;;;2.16;91.70
21359;BME280;13506;50.852;20.632;2024-01-15T01:25:39;96195.97;;;2.19;92.77
21359;BME280;13506;50.852;20.632;2024-01-15T01:28:07;96188.81;;;2.24;91.86
21359;BME280;13506;50.852;20.632;2024-01-15T01:30:36;96179.22;;;2.13;91.96
21359;BME280;13506;50.852;20.632;2024-01-15T01:33:04;96205.13;;;2.23;91.64
21359;BME280;13506;50.852;20.632;2024-01-15T01:35:32;96205.50;;;2.17;91.30
21359;BME280;13506;50.852;20.632;2024-01-15T01:38:01;96207.13;;;2.18;92.07
21359;BME280;13506;50.852;20.632;2024-01-15T01:40:29;96190.84;;;2.19;91.53
21359;BME280;13506;50.852;20.632;2024-01-15T01:42:57;96194.44;;;2.16;92.13
21359;BME280;13506;50.852;20.632;2024-01-15T01:45:25;96196.72;;;2.21;92.19
21359;BME280;13506;50.852;20.632;2024-01-15T01:47:53;96206.25;;;2.19;91.29
21359;BME280;13506;50.852;20.632;2024-01-15T01:50:22;96179.78;;;2.18;91.35
21359;BME280;13506;50.852;20.632;2024-01-15T01:52:50;96178.75;;;2.21;92.03
21359;BME280;13506;50.852;20.632;2024-01-15T01:55:21;96188.75;;;2.26;91.81
21359;BME280;13506;50.852;20.632;2024-01-15T01:57:49;96187.34;;;2.20;90.32
21359;BME280;13506;50.852;20.632;2024-01-15T02:00:18;96187.28;;;2.21;91.49
21359;BME280;13506;50.852;20.632;2024-01-15T02:02:46;96178.94;;;2.18;90.97
21359;BME280;13506;50.852;20.632;2024-01-15T02:05:14;96178.09;;;2.17;91.59
21359;BME280;13506;50.852;20.632;2024-01-15T02:07:46;96183.97;;;2.19;90.75
21359;BME280;13506;50.852;20.632;2024-01-15T02:10:16;96178.94;;;2.18;89.97
21359;BME280;13506;50.852;20.632;2024-01-15T02:12:45;96177.28;;;2.17;90.92
21359;BME280;13506;50.852;20.632;2024-01-15T02:15:15;96174.06;;;2.13;90.30
21359;BME280;13506;50.852;20.632;2024-01-15T02:17:59;96164.84;;;2.11;90.83
21359;BME280;13506;50.852;20.632;2024-01-15T02:20:27;96152.75;;;2.13;90.87
21359;BME280;13506;50.852;20.632;2024-01-15T02:23:07;96145.25;;;2.10;90.67
21359;BME280;13506;50.852;20.632;2024-01-15T02:25:37;96141.94;;;2.08;90.68
21359;BME280;13506;50.852;20.632;2024-01-15T02:28:06;96135.72;;;2.12;90.60
21359;BME280;13506;50.852;20.632;2024-01-15T02:30:37;96139.72;;;2.16;89.93
21359;BME280;13506;50.852;20.632;2024-01-15T02:33:06;96133.63;;;2.18;89.91
21359;BME280;13506;50.852;20.632;2024-01-15T02:35:35;96133.50;;;2.20;89.44
21359;BME280;13506;50.852;20.632;2024-01-15T02:38:06;96129.09;;;2.22;89.17
21359;BME280;13506;50.852;20.632;2024-01-15T02:40:34;96113.09;;;2.18;88.99
21359;BME280;13506;50.852;20.632;2024-01-15T02:43:04;96106.94;;;2.21;89.46
21359;BME280;13506;50.852;20.632;2024-01-15T02:45:33;96115.53;;;2.20;89.40
21359;BME280;13506;50.852;20.632;2024-01-15T02:47:59;96107.75;;;2.21;88.99
21359;BME280;13506;50.852;20.632;2024-01-15T02:50:28;96100.16;;;2.20;88.69
21359;BME280;13506;50.852;20.632;2024-01-15T02:52:55;96103.56;;;2.20;89.19
21359;BME280;13506;50.852;20.632;2024-01-15T02:55:25;96084.16;;;2.16;89.14
21359;BME280;13506;50.852;20.632;2024-01-15T02:57:55;96086.53;;;2.19;89.69
21359;BME280;13506;50.852;20.632;2024-01-15T03:00:25;96077.81;;;2.22;89.05
21359;BME280;13506;50.852;20.632;2024-01-15T03:02:53;96091.56;;;2.21;89.20
21359;BME280;13506;50.852;20.632;2024-01-15T03:05:21;96089.72;;;2.23;89.06
21359;BME280;13506;50.852;20.632;2024-01-15T03:07:49;96081.31;;;2.21;89.39
21359;BME280;13506;50.852;20.632;2024-01-15T03:10:17;96088.19;;;2.20;90.09
21359;BME280;13506;50.852;20.632;2024-01-15T03:12:46;96079.03;;;2.16;89.90
21359;BME280;13506;50.852;20.632;2024-01-15T03:15:14;96071.22;;;2.18;90.33
21359;BME280;13506;50.852;20.632;2024-01-15T03:17:42;96077.91;;;2.20;91.27
21359;BME280;13506;50.852;20.632;2024-01-15T03:20:11;96074.50;;;2.20;91.50
21359;BME280;13506;50.852;20.632;2024-01-15T03:22:39;96074.50;;;2.20;91.87
21359;BME280;13506;50.852;20.632;2024-01-15T03:25:07;96076.25;;;2.19;92.55
21359;BME280;13506;50.852;20.632;2024-01-15T03:27:36;96066.94;;;2.18;92.68
21359;BME280;13506;50.852;20.632;2024-01-15T03:30:06;96057.28;;;2.22;92.80
21359;BME280;13506;50.852;20.632;2024-01-15T03:32:34;96067.91;;;2.16;94.14
21359;BME280;13506;50.852;20.632;2024-01-15T03:35:03;96066.09;;;2.18;94.32
21359;BME280;13506;50.852;20.632;2024-01-15T03:37:31;96059.31;;;2.17;95.26
21359;BME280;13506;50.852;20.632;2024-01-15T03:39:59;96051.53;;;2.18;95.30
21359;BME280;13506;50.852;20.632;2024-01-15T03:42:27;96042.91;;;2.19;94.86
21359;BME280;13506;50.852;20.632;2024-01-15T03:44:55;96049.72;;;2.20;95.29
21359;BME280;13506;50.852;20.632;2024-01-15T03:47:24;96040.25;;;2.21;95.15
21359;BME280;13506;50.852;20.632;2024-01-15T03:49:53;96042.63;;;2.24;94.48
21359;BME280;13506;50.852;20.632;2024-01-15T03:52:20;96054.00;;;2.20;94.37
21359;BME280;13506;50.852;20.632;2024-01-15T03:54:48;96043.00;;;2.18;94.27
21359;BME280;13506;50.852;20.632;2024-01-15T03:57:16;96035.59;;;2.13;95.02
21359;BME280;13506;50.852;20.632;2024-01-15T03:59:44;96024.44;;;2.14;95.86
21359;BME280;13506;50.852;20.632;2024-01-15T04:02:13;96042.69;;;2.10;95.65
21359;BME280;13506;50.852;20.632;2024-01-15T04:04:43;96019.69;;;2.08;95.95
21359;BME280;13506;50.852;20.632;2024-01-15T04:07:11;96030.03;;;2.07;96.46
21359;BME280;13506;50.852;20.632;2024-01-15T04:09:40;96018.31;;;2.02;96.80
21359;BME280;13506;50.852;20.632;2024-01-15T04:12:07;96025.28;;;2.00;97.36
21359;BME280;13506;50.852;20.632;2024-01-15T04:14:36;96011.84;;;1.97;97.37
21359;BME280;13506;50.852;20.632;2024-01-15T04:17:03;96020.44;;;1.96;97.07
21359;BME280;13506;50.852;20.632;2024-01-15T04:19:32;96018.34;;;1.88;96.64
21359;BME280;13506;50.852;20.632;2024-01-15T04:22:01;96020.00;;;1.89;96.18
21359;BME280;13506;50.852;20.632;2024-01-15T04:24:31;96017.06;;;1.95;95.83
21359;BME280;13506;50.852;20.632;2024-01-15T04:26:59;96012.66;;;1.97;95.49
21359;BME280;13506;50.852;20.632;2024-01-15T04:29:27;96012.28;;;2.03;95.33
21359;BME280;13506;50.852;20.632;2024-01-15T04:31:55;96017.28;;;2.05;94.91
21359;BME280;13506;50.852;20.632;2024-01-15T04:34:23;96003.66;;;2.04;94.44
21359;BME280;13506;50.852;20.632;2024-01-15T04:36:51;95995.88;;;2.06;93.64
21359;BME280;13506;50.852;20.632;2024-01-15T04:39:20;96004.59;;;2.03;93.20
21359;BME280;13506;50.852;20.632;2024-01-15T04:41:48;95996.91;;;2.03;93.00
21359;BME280;13506;50.852;20.632;2024-01-15T04:44:16;96019.97;;;2.03;92.98
21359;BME280;13506;50.852;20.632;2024-01-15T04:46:44;95993.63;;;2.01;92.47
21359;BME280;13506;50.852;20.632;2024-01-15T04:49:12;95985.81;;;2.03;92.12
21359;BME280;13506;50.852;20.632;2024-01-15T04:51:40;95983.16;;;2.04;91.93
21359;BME280;13506;50.852;20.632;2024-01-15T04:54:08;95985.75;;;1.90;90.80
21359;BME280;13506;50.852;20.632;2024-01-15T04:56:39;95997.44;;;1.94;90.84
21359;BME280;13506;50.852;20.632;2024-01-15T04:59:07;95984.34;;;1.99;90.83
21359;BME280;13506;50.852;20.632;2024-01-15T05:01:35;95997.00;;;2.02;89.91
21359;BME280;13506;50.852;20.632;2024-01-15T05:04:03;95990.50;;;1.96;89.07
21359;BME280;13506;50.852;20.632;2024-01-15T05:06:31;95999.28;;;1.92;88.97
21359;BME280;13506;50.852;20.632;2024-01-15T05:08:59;95987.31;;;1.93;88.74
21359;BME280;13506;50.852;20.632;2024-01-15T05:11:27;95994.81;;;1.96;89.21
21359;BME280;13506;50.852;20.632;2024-01-15T05:13:56;96003.94;;;2.00;88.19
21359;BME280;13506;50.852;20.632;2024-01-15T05:16:25;95997.06;;;2.00;88.25
21359;BME280;13506;50.852;20.632;2024-01-15T05:18:54;95978.22;;;2.01;87.50
21359;BME280;13506;50.852;20.632;2024-01-15T05:21:21;95982.34;;;2.04;86.91
21359;BME280;13506;50.852;20.632;2024-01-15T05:23:49;95969.59;;;2.02;86.35
21359;BME280;13506;50.852;20.632;2024-01-15T05:26:17;95975.97;;;1.97;87.08
21359;BME280;13506;50.852;20.632;2024-01-15T05:28:45;95964.69;;;1.99;86.43
21359;BME280;13506;50.852;20.632;2024-01-15T05:31:14;95954.13;;;2.04;87.08
21359;BME280;13506;50.852;20.632;2024-01-15T05:33:43;95963.56;;;2.03;85.78
21359;BME280;13506;50.852;20.632;2024-01-15T05:36:10;95955.16;;;2.01;85.93
21359;BME280;13506;50.852;20.632;2024-01-15T05:38:39;95969.09;;;1.97;85.97
21359;BME280;13506;50.852;20.632;2024-01-15T05:41:07;95943.97;;;2.02;86.37
21359;BME280;13506;50.852;20.632;2024-01-15T05:43:35;95961.09;;;2.02;85.69
21359;BME280;13506;50.852;20.632;2024-01-15T05:46:03;95960.16;;;2.03;86.06
21359;BME280;13506;50.852;20.632;2024-01-15T05:48:32;95949.72;;;2.06;85.13
21359;BME280;13506;50.852;20.632;2024-01-15T05:51:00;95971.16;;;2.05;85.17
21359;BME280;13506;50.852;20.632;2024-01-15T05:53:28;95962.63;;;2.04;84.73
21359;BME280;13506;50.852;20.632;2024-01-15T05:55:56;95948.28;;;2.02;85.09
21359;BME280;13506;50.852;20.632;2024-01-15T05:58:25;95954.50;;;1.98;85.12
21359;BME280;13506;50.852;20.632;2024-01-15T06:00:52;95948.19;;;2.03;84.82
21359;BME280;13506;50.852;20.632;2024-01-15T06:03:20;95953.13;;;2.07;84.47
21359;BME280;13506;50.852;20.632;2024-01-15T06:05:50;95954.03;;;2.06;85.30
21359;BME280;13506;50.852;20.632;2024-01-15T06:08:18;95935.38;;;2.03;84.75
21359;BME280;13506;50.852;20.632;2024-01-15T06:10:47;95961.44;;;2.10;85.04
21359;BME280;13506;50.852;20.632;2024-01-15T06:13:15;95971.28;;;2.03;87.31
21359;BME280;13506;50.852;20.632;2024-01-15T06:15:43;95960.28;;;2.01;88.88
21359;BME280;13506;50.852;20.632;2024-01-15T06:18:11;95959.00;;;1.94;90.09
21359;BME280;13506;50.852;20.632;2024-01-15T06:20:40;95959.72;;;1.96;90.13
21359;BME280;13506;50.852;20.632;2024-01-15T06:23:09;95967.25;;;1.99;90.14
21359;BME280;13506;50.852;20.632;2024-01-15T06:25:37;95952.16;;;1.95;90.19
21359;BME280;13506;50.852;20.632;2024-01-15T06:28:06;95959.00;;;1.94;89.97
21359;BME280;13506;50.852;20.632;2024-01-15T06:30:34;95963.97;;;1.97;89.97
21359;BME280;13506;50.852;20.632;2024-01-15T06:33:02;95965.88;;;1.94;90.75
21359;BME280;13506;50.852;20.632;2024-01-15T06:35:30;95969.53;;;1.90;90.70
21359;BME280;13506;50.852;20.632;2024-01-15T06:38:01;95972.19;;;1.88;91.81
21359;BME280;13506;50.852;20.632;2024-01-15T06:40:30;95969.09;;;1.83;91.85
21359;BME280;13506;50.852;20.632;2024-01-15T06:42:58;95959.22;;;1.91;92.12
21359;BME280;13506;50.852;20.632;2024-01-15T06:45:26;95974.38;;;1.94;92.17
21359;BME280;13506;50.852;20.632;2024-01-15T06:47:54;95965.25;;;1.90;92.18
21359;BME280;13506;50.852;20.632;2024-01-15T06:50:22;95970.28;;;1.92;92.68
21359;BME280;13506;50.852;20.632;2024-01-15T06:52:51;95972.13;;;1.90;93.52
21359;BME280;13506;50.852;20.632;2024-01-15T06:55:19;95965.16;;;1.92;94.20
21359;BME280;13506;50.852;20.632;2024-01-15T06:57:49;95977.00;;;1.80;93.57
21359;BME280;13506;50.852;20.632;2024-01-15T07:00:17;95969.84;;;1.85;94.04
21359;BME280;13506;50.852;20.632;2024-01-15T07:02:46;95963.25;;;1.81;93.79
21359;BME280;13506;50.852;20.632;2024-01-15T07:05:14;95970.94;;;1.81;93.70
21359;BME280;13506;50.852;20.632;2024-01-15T07:07:43;95965.63;;;1.84;94.33
21359;BME280;13506;50.852;20.632;2024-01-15T07:10:11;95969.63;;;1.88;93.06
21359;BME280;13506;50.852;20.632;2024-01-15T07:12:39;95974.50;;;1.93;92.96
21359;BME280;13506;50.852;20.632;2024-01-15T07:15:10;95972.75;;;1.93;91.37
21359;BME280;13506;50.852;20.632;2024-01-15T07:17:39;95979.72;;;1.91;91.08
21359;BME280;13506;50.852;20.632;2024-01-15T07:20:07;95979.44;;;1.96;90.16
21359;BME280;13506;50.852;20.632;2024-01-15T07:22:36;95981.91;;;1.97;90.42
21359;BME280;13506;50.852;20.632;2024-01-15T07:25:05;96002.59;;;1.94;90.77
21359;BME280;13506;50.852;20.632;2024-01-15T07:27:33;95989.69;;;1.96;90.80
21359;BME280;13506;50.852;20.632;2024-01-15T07:30:01;95987.03;;;1.97;92.01
21359;BME280;13506;50.852;20.632;2024-01-15T07:32:33;95992.88;;;1.99;92.20
21359;BME280;13506;50.852;20.632;2024-01-15T07:35:01;95980.25;;;1.96;92.14
21359;BME280;13506;50.852;20.632;2024-01-15T07:37:29;95985.38;;;1.96;93.54
21359;BME280;13506;50.852;20.632;2024-01-15T07:39:57;95981.47;;;1.91;93.77
21359;BME280;13506;50.852;20.632;2024-01-15T07:42:26;95966.69;;;1.94;93.50
21359;BME280;13506;50.852;20.632;2024-01-15T07:44:54;95972.03;;;1.91;94.07
21359;BME280;13506;50.852;20.632;2024-01-15T07:47:23;95974.59;;;1.91;94.84
21359;BME280;13506;50.852;20.632;2024-01-15T07:49:53;95984.84;;;1.91;94.45
21359;BME280;13506;50.852;20.632;2024-01-15T07:52:22;95979.44;;;1.96;95.14
21359;BME280;13506;50.852;20.632;2024-01-15T07:54:50;95967.78;;;1.90;95.13
21359;BME280;13506;50.852;20.632;2024-01-15T07:57:18;95990.69;;;1.93;94.56
21359;BME280;13506;50.852;20.632;2024-01-15T07:59:46;95971.81;;;1.94;94.67
21359;BME280;13506;50.852;20.632;2024-01-15T08:02:15;95971.44;;;2.00;94.69
21359;BME280;13506;50.852;20.632;2024-01-15T08:04:42;95981.31;;;2.07;93.34
21359;BME280;13506;50.852;20.632;2024-01-15T08:07:12;95962.91;;;2.14;92.76
21359;BME280;13506;50.852;20.632;2024-01-15T08:09:40;95971.94;;;2.20;91.50
21359;BME280;13506;50.852;20.632;2024-01-15T08:12:08;95973.38;;;2.24;90.82
21359;BME280;13506;50.852;20.632;2024-01-15T08:14:37;95971.97;;;2.33;90.23
21359;BME280;13506;50.852;20.632;2024-01-15T08:17:06;95977.75;;;2.36;87.96
21359;BME280;13506;50.852;20.632;2024-01-15T08:19:34;95972.59;;;2.36;86.88
21359;BME280;13506;50.852;20.632;2024-01-15T08:22:02;95973.88;;;2.43;86.87
21359;BME280;13506;50.852;20.632;2024-01-15T08:24:31;95976.44;;;2.43;85.96
21359;BME280;13506;50.852;20.632;2024-01-15T08:26:59;95971.00;;;2.48;86.34
21359;BME280;13506;50.852;20.632;2024-01-15T08:29:27;95976.97;;;2.49;87.38
21359;BME280;13506;50.852;20.632;2024-01-15T08:32:00;95972.22;;;2.42;89.99
21359;BME280;13506;50.852;20.632;2024-01-15T08:34:27;95978.03;;;2.32;91.04
21359;BME280;13506;50.852;20.632;2024-01-15T08:36:57;95980.97;;;2.26;92.79
21359;BME280;13506;50.852;20.632;2024-01-15T08:39:25;95997.41;;;2.23;93.41
21359;BME280;13506;50.852;20.632;2024-01-15T08:41:55;96009.50;;;2.21;93.93
21359;BME280;13506;50.852;20.632;2024-01-15T08:44:23;96006.28;;;2.17;94.03
21359;BME280;13506;50.852;20.632;2024-01-15T08:46:51;95992.13;;;2.12;94.25
21359;BME280;13506;50.852;20.632;2024-01-15T08:49:19;96019.78;;;2.07;94.54
21359;BME280;13506;50.852;20.632;2024-01-15T08:51:48;95994.59;;;1.99;94.85
21359;BME280;13506;50.852;20.632;2024-01-15T08:54:16;95996.00;;;1.90;96.26
21359;BME280;13506;50.852;20.632;2024-01-15T08:56:44;96008.44;;;1.96;96.80
21359;BME280;13506;50.852;20.632;2024-01-15T08:59:13;96009.97;;;1.99;96.80
21359;BME280;13506;50.852;20.632;2024-01-15T09:01:43;96003.22;;;1.98;96.90
21359;BME280;13506;50.852;20.632;2024-01-15T09:04:11;95997.56;;;1.93;96.40
21359;BME280;13506;50.852;20.632;2024-01-15T09:06:39;96011.84;;;1.97;96.45
21359;BME280;13506;50.852;20.632;2024-01-15T09:09:07;95999.56;;;2.02;96.73
21359;BME280;13506;50.852;20.632;2024-01-15T09:11:35;95987.25;;;2.07;97.17
21359;BME280;13506;50.852;20.632;2024-01-15T09:14:03;96000.19;;;2.06;96.76
21359;BME280;13506;50.852;20.632;2024-01-15T09:16:33;95993.03;;;2.11;97.50
21359;BME280;13506;50.852;20.632;2024-01-15T09:19:00;96001.25;;;2.16;97.55
21359;BME280;13506;50.852;20.632;2024-01-15T09:21:32;96009.13;;;2.13;96.91
21359;BME280;13506;50.852;20.632;2024-01-15T09:23:59;96001.44;;;2.13;96.28
21359;BME280;13506;50.852;20.632;2024-01-15T09:26:28;95997.06;;;2.15;96.24
21359;BME280;13506;50.852;20.632;2024-01-15T09:28:56;95995.94;;;2.19;96.16
21359;BME280;13506;50.852;20.632;2024-01-15T09:31:25;95994.75;;;2.24;96.14
21359;BME280;13506;50.852;20.632;2024-01-15T09:33:54;96004.88;;;2.26;94.82
21359;BME280;13506;50.852;20.632;2024-01-15T09:36:25;95992.41;;;2.34;95.43
21359;BME280;13506;50.852;20.632;2024-01-15T09:38:53;96000.66;;;2.39;93.60
21359;BME280;13506;50.852;20.632;2024-01-15T09:41:23;96004.66;;;2.43;93.50
21359;BME280;13506;50.852;20.632;2024-01-15T09:43:52;95985.56;;;2.48;92.67
21359;BME280;13506;50.852;20.632;2024-01-15T09:46:20;96000.56;;;2.54;92.77
21359;BME280;13506;50.852;20.632;2024-01-15T09:48:48;95993.09;;;2.51;90.63
21359;BME280;13506;50.852;20.632;2024-01-15T09:51:18;95998.94;;;2.53;90.43
21359;BME280;13506;50.852;20.632;2024-01-15T09:53:47;95988.66;;;2.53;89.58
21359;BME280;13506;50.852;20.632;2024-01-15T09:56:16;95976.88;;;2.50;90.51
21359;BME280;13506;50.852;20.632;2024-01-15T09:58:45;95981.69;;;2.55;90.53
21359;BME280;13506;50.852;20.632;2024-01-15T10:01:15;95983.25;;;2.57;90.33
21359;BME280;13506;50.852;20.632;2024-01-15T10:03:45;95998.13;;;2.52;90.31
21359;BME280;13506;50.852;20.632;2024-01-15T10:06:17;95991.34;;;2.51;90.00
21359;BME280;13506;50.852;20.632;2024-01-15T10:08:48;95997.56;;;2.47;91.71
21359;BME280;13506;50.852;20.632;2024-01-15T10:11:17;95992.34;;;2.49;91.03
21359;BME280;13506;50.852;20.632;2024-01-15T10:13:45;95984.75;;;2.47;90.92
21359;BME280;13506;50.852;20.632;2024-01-15T10:16:14;96002.41;;;2.52;91.63
21359;BME280;13506;50.852;20.632;2024-01-15T10:18:42;96001.19;;;2.57;90.35
21359;BME280;13506;50.852;20.632;2024-01-15T10:21:10;96014.03;;;2.57;91.21
21359;BME280;13506;50.852;20.632;2024-01-15T10:23:40;95998.16;;;2.65;90.44
21359;BME280;13506;50.852;20.632;2024-01-15T10:26:08;95998.38;;;2.75;90.24
21359;BME280;13506;50.852;20.632;2024-01-15T10:28:38;95991.81;;;2.83;89.62
21359;BME280;13506;50.852;20.632;2024-01-15T10:31:08;95981.69;;;2.95;88.38
21359;BME280;13506;50.852;20.632;2024-01-15T10:33:36;95976.56;;;3.08;85.58
21359;BME280;13506;50.852;20.632;2024-01-15T10:36:10;95982.41;;;3.22;85.80
21359;BME280;13506;50.852;20.632;2024-01-15T10:38:39;95971.50;;;3.44;85.63
21359;BME280;13506;50.852;20.632;2024-01-15T10:41:08;95966.34;;;3.57;83.58
21359;BME280;13506;50.852;20.632;2024-01-15T10:43:36;95976.59;;;3.70;81.74
21359;BME280;13506;50.852;20.632;2024-01-15T10:46:04;95989.78;;;3.65;80.56
21359;BME280;13506;50.852;20.632;2024-01-15T10:48:33;95972.09;;;3.61;82.27
21359;BME280;13506;50.852;20.632;2024-01-15T10:51:03;95974.34;;;3.65;82.24
21359;BME280;13506;50.852;20.632;2024-01-15T10:53:39;95988.13;;;3.64;81.11
21359;BME280;13506;50.852;20.632;2024-01-15T10:56:10;95984.13;;;3.73;82.23
21359;BME280;13506;50.852;20.632;2024-01-15T10:58:42;95980.06;;;3.82;81.65
21359;BME280;13506;50.852;20.632;2024-01-15T11:01:11;95980.56;;;3.87;79.37
21359;BME280;13506;50.852;20.632;2024-01-15T11:03:40;95969.75;;;3.95;79.33
21359;BME280;13506;50.852;20.632;2024-01-15T11:06:16;95971.38;;;3.96;78.41
21359;BME280;13506;50.852;20.632;2024-01-15T11:08:49;95982.22;;;3.88;77.92
21359;BME280;13506;50.852;20.632;2024-01-15T11:11:17;95971.22;;;3.86;77.07
21359;BME280;13506;50.852;20.632;2024-01-15T11:13:47;95960.56;;;3.79;77.55
21359;BME280;13506;50.852;20.632;2024-01-15T11:16:19;95967.94;;;3.84;78.43
21359;BME280;13506;50.852;20.632;2024-01-15T11:19:03;95952.09;;;3.90;77.89
21359;BME280;13506;50.852;20.632;2024-01-15T11:21:33;95979.44;;;3.91;77.23
21359;BME280;13506;50.852;20.632;2024-01-15T11:24:08;95970.59;;;3.82;77.10
21359;BME280;13506;50.852;20.632;2024-01-15T11:26:44;95976.50;;;3.72;77.40
21359;BME280;13506;50.852;20.632;2024-01-15T11:29:30;95990.00;;;3.62;77.94
21359;BME280;13506;50.852;20.632;2024-01-15T11:32:04;95968.81;;;3.46;77.80
21359;BME280;13506;50.852;20.632;2024-01-15T11:34:57;95983.53;;;3.31;78.79
21359;BME280;13506;50.852;20.632;2024-01-15T11:37:27;95978.81;;;3.25;78.73
21359;BME280;13506;50.852;20.632;2024-01-15T11:40:02;95973.56;;;3.26;79.59
21359;BME280;13506;50.852;20.632;2024-01-15T11:42:31;95968.44;;;3.26;78.76
21359;BME280;13506;50.852;20.632;2024-01-15T11:45:00;95950.78;;;3.22;78.93
21359;BME280;13506;50.852;20.632;2024-01-15T11:48:10;95977.69;;;3.16;79.76
21359;BME280;13506;50.852;20.632;2024-01-15T11:50:41;95959.19;;;3.11;79.64
21359;BME280;13506;50.852;20.632;2024-01-15T11:53:36;95982.72;;;3.05;79.40
21359;BME280;13506;50.852;20.632;2024-01-15T11:56:15;95989.97;;;2.98;80.07
21359;BME280;13506;50.852;20.632;2024-01-15T11:58:44;95956.91;;;2.94;80.18
21359;BME280;13506;50.852;20.632;2024-01-15T12:01:13;95974.88;;;2.94;80.20
21359;BME280;13506;50.852;20.632;2024-01-15T12:03:41;95961.94;;;2.95;80.23
21359;BME280;13506;50.852;20.632;2024-01-15T12:06:10;95963.88;;;2.92;80.52
21359;BME280;13506;50.852;20.632;2024-01-15T12:08:38;95958.97;;;2.89;80.69
21359;BME280;13506;50.852;20.632;2024-01-15T12:11:10;95963.28;;;2.88;80.44
21359;BME280;13506;50.852;20.632;2024-01-15T12:13:41;95953.84;;;2.89;80.74
21359;BME280;13506;50.852;20.632;2024-01-15T12:16:10;95959.47;;;2.94;80.25
21359;BME280;13506;50.852;20.632;2024-01-15T12:18:39;95960.81;;;2.87;80.41
21359;BME280;13506;50.852;20.632;2024-01-15T12:21:10;95941.00;;;2.89;79.90
21359;BME280;13506;50.852;20.632;2024-01-15T12:23:38;95940.91;;;2.90;79.57
21359;BME280;13506;50.852;20.632;2024-01-15T12:26:07;95936.59;;;2.91;80.65
21359;BME280;13506;50.852;20.632;2024-01-15T12:28:37;95959.38;;;2.95;79.88
21359;BME280;13506;50.852;20.632;2024-01-15T12:31:06;95960.19;;;2.96;79.70
21359;BME280;13506;50.852;20.632;2024-01-15T12:33:34;95947.25;;;2.97;79.49
21359;BME280;13506;50.852;20.632;2024-01-15T12:36:03;95956.00;;;2.95;79.72
21359;BME280;13506;50.852;20.632;2024-01-15T12:38:31;95953.44;;;2.95;79.64
21359;BME280;13506;50.852;20.632;2024-01-15T12:41:01;95962.44;;;2.88;79.10
21359;BME280;13506;50.852;20.632;2024-01-15T12:43:28;95955.69;;;2.87;79.61
21359;BME280;13506;50.852;20.632;2024-01-15T12:45:58;95954.88;;;2.86;79.67
21359;BME280;13506;50.852;20.632;2024-01-15T12:48:27;95965.72;;;2.90;79.50
21359;BME280;13506;50.852;20.632;2024-01-15T12:50:56;95962.34;;;2.89;79.65
21359;BME280;13506;50.852;20.632;2024-01-15T12:53:23;95964.28;;;2.85;79.20
21359;BME280;13506;50.852;20.632;2024-01-15T12:55:51;95973.13;;;2.81;79.87
21359;BME280;13506;50.852;20.632;2024-01-15T12:58:19;95965.41;;;2.81;79.43
21359;BME280;13506;50.852;20.632;2024-01-15T13:00:48;95969.94;;;2.78;78.99
21359;BME280;13506;50.852;20.632;2024-01-15T13:03:17;95967.25;;;2.79;79.58
21359;BME280;13506;50.852;20.632;2024-01-15T13:05:46;95958.97;;;2.76;78.97
21359;BME280;13506;50.852;20.632;2024-01-15T13:08:14;95960.59;;;2.77;79.33
21359;BME280;13506;50.852;20.632;2024-01-15T13:10:42;95963.88;;;2.79;78.77